Time;durP1;ratioP1;P1;durP2;ratioP2;P2;SDS_P1;SDS_P2;PMS_P1;PMS_P2;Temp;Humidity;BMP_temperature;BMP_pressure;BME280_temperature;BME280_humidity;BME280_pressure;Samples;Min_cycle;Max_cycle;Signal;HPM_P1;HPM_P2
2023/01/20 00:01:08;;;;;;;47.15;28.27;;;1.50;99.90;;;;;;5061711;28;20503;-60
2023/01/20 00:03:34;;;;;;;54.15;30.92;;;1.50;99.90;;;;;;5057419;28;20424;-58
2023/01/20 00:05:59;;;;;;;54.65;31.15;;;1.70;99.90;;;;;;5053578;28;20033;-60
2023/01/20 00:08:25;;;;;;;55.08;30.13;;;1.80;99.90;;;;;;5060259;28;20028;-60
2023/01/20 00:10:51;;;;;;;53.08;30.40;;;2.00;99.90;;;;;;5066054;28;20040;-61
2023/01/20 00:13:16;;;;;;;56.72;32.28;;;2.00;99.90;;;;;;5065337;28;20039;-58
2023/01/20 00:15:42;;;;;;;55.45;31.33;;;2.10;99.90;;;;;;5064916;28;20040;-61
2023/01/20 00:18:07;;;;;;;51.08;30.42;;;2.20;99.90;;;;;;5058823;28;20036;-60
2023/01/20 00:20:33;;;;;;;55.88;29.83;;;2.10;99.90;;;;;;5059526;28;20052;-59
2023/01/20 00:22:58;;;;;;;54.08;29.65;;;2.20;99.90;;;;;;5052831;28;20071;-59
2023/01/20 00:25:24;;;;;;;62.08;30.42;;;2.20;99.90;;;;;;5050908;28;20040;-60
2023/01/20 00:27:52;;;;;;;51.58;30.25;;;2.20;99.90;;;;;;5061248;28;20066;-59
2023/01/20 00:30:17;;;;;;;55.70;29.75;;;2.20;99.90;;;;;;5065842;28;20029;-60
2023/01/20 00:32:44;;;;;;;52.65;28.92;;;2.20;99.90;;;;;;5067755;28;20106;-58
2023/01/20 00:35:11;;;;;;;59.35;30.35;;;2.30;99.90;;;;;;5063002;28;20024;-57
2023/01/20 00:37:37;;;;;;;53.33;29.73;;;2.30;99.90;;;;;;5060177;28;20043;-61
2023/01/20 00:40:04;;;;;;;58.13;29.98;;;2.20;99.90;;;;;;5064202;28;20036;-59
2023/01/20 00:42:29;;;;;;;61.75;30.20;;;2.20;99.90;;;;;;5065920;28;20624;-60
2023/01/20 00:44:55;;;;;;;56.92;30.52;;;2.40;99.90;;;;;;5062131;28;20033;-61
2023/01/20 00:47:21;;;;;;;55.08;29.98;;;2.40;99.90;;;;;;5063913;28;20047;-62
2023/01/20 00:49:47;;;;;;;52.90;28.38;;;2.40;99.90;;;;;;5056272;28;20037;-60
2023/01/20 00:52:13;;;;;;;55.58;29.45;;;2.30;99.90;;;;;;5052259;28;20020;-60
2023/01/20 00:54:39;;;;;;;52.28;28.48;;;2.40;99.90;;;;;;5065280;28;20032;-59
2023/01/20 00:57:04;;;;;;;57.00;30.80;;;2.40;99.90;;;;;;5065070;28;20128;-60
2023/01/20 00:59:30;;;;;;;58.25;31.08;;;2.50;99.90;;;;;;5066006;28;20032;-59
2023/01/20 01:01:56;;;;;;;60.22;30.15;;;2.50;99.90;;;;;;5065540;28;20697;-61
2023/01/20 01:04:21;;;;;;;58.03;30.73;;;2.40;99.90;;;;;;5053206;28;20075;-61
2023/01/20 01:06:49;;;;;;;59.47;29.85;;;2.40;99.90;;;;;;5050621;28;20127;-58
2023/01/20 01:09:15;;;;;;;60.38;31.27;;;2.30;99.90;;;;;;5050789;28;20436;-60
2023/01/20 01:11:41;;;;;;;62.85;31.52;;;2.40;99.90;;;;;;5060644;28;20475;-60
2023/01/20 01:14:06;;;;;;;62.90;30.25;;;2.40;99.90;;;;;;5058936;28;20040;-60
2023/01/20 01:16:32;;;;;;;65.93;32.92;;;2.50;99.90;;;;;;5052959;28;20041;-59
2023/01/20 01:18:57;;;;;;;68.45;34.42;;;2.60;99.90;;;;;;5063864;28;20048;-58
2023/01/20 01:21:23;;;;;;;66.85;32.13;;;2.60;99.90;;;;;;5066008;28;20033;-60
2023/01/20 01:23:50;;;;;;;67.20;31.88;;;2.60;99.90;;;;;;5065946;28;20093;-61
2023/01/20 01:26:16;;;;;;;65.20;32.33;;;2.60;99.90;;;;;;5063754;28;20115;-60
2023/01/20 01:28:42;;;;;;;66.22;33.00;;;2.80;99.90;;;;;;5062411;28;20505;-61
2023/01/20 01:31:08;;;;;;;69.28;34.97;;;2.80;99.90;;;;;;5065803;28;20089;-61
2023/01/20 01:33:34;;;;;;;72.15;34.55;;;2.70;99.90;;;;;;5064864;28;20045;-60
2023/01/20 01:36:02;;;;;;;69.40;33.22;;;2.60;99.90;;;;;;5066196;28;20043;-61
2023/01/20 01:38:28;;;;;;;73.40;36.67;;;2.70;99.90;;;;;;5058764;28;20037;-60
2023/01/20 01:40:55;;;;;;;74.30;37.00;;;2.60;99.90;;;;;;5065992;28;20079;-60
2023/01/20 01:43:27;;;;;;;71.55;34.83;;;2.30;99.90;;;;;;5063048;28;20092;-59
2023/01/20 01:45:53;;;;;;;77.40;36.67;;;2.40;99.90;;;;;;5062801;28;20044;-60
2023/01/20 01:48:42;;;;;;;73.80;36.30;;;2.50;99.90;;;;;;5051988;28;20045;-61
2023/01/20 01:51:10;;;;;;;75.53;36.42;;;2.60;99.90;;;;;;5063738;28;20089;-60
2023/01/20 01:53:47;;;;;;;77.00;37.35;;;2.60;99.90;;;;;;5066284;28;20063;-60
2023/01/20 01:56:14;;;;;;;76.38;37.25;;;2.70;99.90;;;;;;5065843;28;20677;-59
2023/01/20 01:58:46;;;;;;;75.50;36.83;;;2.80;99.90;;;;;;5065288;28;20400;-59
2023/01/20 02:01:12;;;;;;;77.32;35.67;;;2.80;99.90;;;;;;5051747;28;20049;-58
2023/01/20 02:03:47;;;;;;;76.90;36.05;;;2.70;99.90;;;;;;5060629;28;20036;-59
2023/01/20 02:06:14;;;;;;;69.32;36.50;;;2.70;99.90;;;;;;5055190;28;20488;-60
2023/01/20 02:08:40;;;;;;;77.68;37.55;;;2.70;99.90;;;;;;5057697;28;20551;-60
2023/01/20 02:11:06;;;;;;;80.28;36.35;;;2.80;99.90;;;;;;5059775;28;20500;-58
2023/01/20 02:13:32;;;;;;;69.05;35.60;;;2.90;99.90;;;;;;5055327;28;20040;-61
2023/01/20 02:16:04;;;;;;;76.82;37.50;;;2.70;99.90;;;;;;5061737;28;20028;-62
2023/01/20 02:18:45;;;;;;;70.35;34.10;;;2.60;99.90;;;;;;5066730;28;20484;-61
2023/01/20 02:21:32;;;;;;;68.82;34.40;;;2.60;99.90;;;;;;5067485;28;20297;-60
2023/01/20 02:24:21;;;;;;;69.47;33.90;;;2.60;99.90;;;;;;5061282;28;20033;-61
2023/01/20 02:27:07;;;;;;;67.78;33.78;;;2.60;99.90;;;;;;5061481;28;20052;-58
2023/01/20 02:29:41;;;;;;;69.60;33.95;;;2.60;99.90;;;;;;5068370;28;20488;-61
2023/01/20 02:32:31;;;;;;;70.45;35.50;;;2.60;99.90;;;;;;5068225;28;20484;-60
2023/01/20 02:35:03;;;;;;;68.20;33.70;;;2.70;99.90;;;;;;5064464;28;20039;-62
2023/01/20 02:37:43;;;;;;;68.75;33.17;;;2.70;99.90;;;;;;5062074;28;20033;-61
2023/01/20 02:40:30;;;;;;;67.55;32.90;;;2.70;99.90;;;;;;5067854;28;20036;-60
2023/01/20 02:43:04;;;;;;;64.80;33.60;;;2.60;99.90;;;;;;5067648;28;20495;-61
2023/01/20 02:46:12;;;;;;;63.90;32.40;;;2.70;99.90;;;;;;5067739;28;20036;-61
2023/01/20 02:48:47;;;;;;;67.50;32.42;;;2.70;99.90;;;;;;5019810;28;20408;-58
2023/01/20 02:51:24;;;;;;;65.32;33.63;;;2.70;99.90;;;;;;5014949;28;20508;-60
2023/01/20 02:53:54;;;;;;;65.22;32.47;;;2.70;99.90;;;;;;5047947;28;20028;-61
2023/01/20 02:56:24;;;;;;;67.70;32.80;;;2.50;99.90;;;;;;5060085;28;20510;-59
2023/01/20 02:58:54;;;;;;;62.95;32.40;;;2.50;99.90;;;;;;5063484;28;20453;-61
2023/01/20 03:01:24;;;;;;;69.85;34.42;;;2.60;99.90;;;;;;5064869;28;20131;-59
2023/01/20 03:03:52;;;;;;;68.15;34.50;;;2.70;99.90;;;;;;5067505;28;20499;-60
2023/01/20 03:06:22;;;;;;;69.60;36.13;;;2.60;99.90;;;;;;5068233;28;20032;-61
2023/01/20 03:08:51;;;;;;;69.70;36.00;;;2.80;99.90;;;;;;5068697;28;20029;-61
2023/01/20 03:11:17;;;;;;;72.85;36.22;;;2.80;99.90;;;;;;5067950;28;20036;-61
2023/01/20 03:13:46;;;;;;;75.90;37.80;;;2.90;99.90;;;;;;5067307;28;20497;-59
2023/01/20 03:16:23;;;;;;;82.50;37.83;;;2.90;99.90;;;;;;5064625;28;20045;-62
2023/01/20 03:18:50;;;;;;;76.55;35.53;;;2.80;99.90;;;;;;5056020;28;20397;-62
2023/01/20 03:21:16;;;;;;;77.30;37.80;;;2.60;99.90;;;;;;5067970;28;20459;-58
2023/01/20 03:23:45;;;;;;;71.03;36.00;;;2.70;99.90;;;;;;5064718;28;20056;-62
2023/01/20 03:26:13;;;;;;;71.97;34.42;;;2.60;99.90;;;;;;5057106;28;20046;-62
2023/01/20 03:28:40;;;;;;;72.18;35.10;;;2.50;99.90;;;;;;5065415;28;20032;-61
2023/01/20 03:31:23;;;;;;;72.93;36.35;;;2.50;99.90;;;;;;5067754;28;20577;-58
2023/01/20 03:33:52;;;;;;;78.45;37.60;;;2.60;99.90;;;;;;5066291;28;20496;-62
2023/01/20 03:36:21;;;;;;;77.40;38.38;;;2.60;99.90;;;;;;5067998;28;20025;-61
2023/01/20 03:38:47;;;;;;;75.72;37.65;;;2.60;99.90;;;;;;5057065;28;20041;-59
2023/01/20 03:41:35;;;;;;;77.78;38.40;;;2.70;99.90;;;;;;5055033;28;20032;-60
2023/01/20 03:44:03;;;;;;;72.95;36.35;;;2.70;99.90;;;;;;5059665;28;20091;-62
2023/01/20 03:46:38;;;;;;;69.50;36.15;;;2.70;99.90;;;;;;5064424;28;20055;-61
2023/01/20 03:49:14;;;;;;;66.00;34.83;;;2.60;99.90;;;;;;5065179;28;20127;-62
2023/01/20 03:52:01;;;;;;;74.90;36.40;;;2.60;99.90;;;;;;5071048;28;20450;-61
2023/01/20 03:54:33;;;;;;;68.68;33.97;;;2.80;99.90;;;;;;5066283;28;20408;-61
2023/01/20 03:57:09;;;;;;;70.05;34.40;;;2.70;99.90;;;;;;5057179;28;20531;-62
2023/01/20 03:59:38;;;;;;;66.85;34.38;;;2.70;99.90;;;;;;5056633;28;20041;-62
2023/01/20 04:02:06;;;;;;;64.47;33.35;;;2.80;99.90;;;;;;5070031;28;20044;-61
2023/01/20 04:04:35;;;;;;;66.65;34.03;;;2.80;99.90;;;;;;5066727;28;20036;-61
2023/01/20 04:07:04;;;;;;;69.07;35.40;;;2.90;99.90;;;;;;5065803;28;20040;-60
2023/01/20 04:09:34;;;;;;;65.75;32.75;;;2.90;99.90;;;;;;5066762;28;20821;-62
2023/01/20 04:12:00;;;;;;;67.47;33.17;;;3.00;99.90;;;;;;5066075;28;20024;-61
2023/01/20 04:14:26;;;;;;;64.38;30.90;;;3.10;99.90;;;;;;5052427;28;20063;-62
2023/01/20 04:16:55;;;;;;;64.93;33.47;;;3.00;99.90;;;;;;5061014;28;20384;-57
2023/01/20 04:19:21;;;;;;;66.40;32.47;;;3.00;99.90;;;;;;5053949;28;20124;-61
2023/01/20 04:22:18;;;;;;;64.13;31.95;;;2.90;99.90;;;;;;5052872;28;20116;-59
2023/01/20 04:25:12;;;;;;;56.40;30.52;;;2.90;99.90;;;;;;5063506;28;20044;-61
2023/01/20 04:27:37;;;;;;;60.65;28.85;;;2.90;99.90;;;;;;5059088;28;20081;-60
2023/01/20 04:30:03;;;;;;;58.72;29.30;;;2.80;99.90;;;;;;5065583;28;20032;-60
2023/01/20 04:32:29;;;;;;;59.88;29.90;;;2.70;99.90;;;;;;5060397;28;20174;-60
2023/01/20 04:34:54;;;;;;;55.85;29.58;;;2.70;99.90;;;;;;5063770;28;20476;-58
2023/01/20 04:37:20;;;;;;;52.72;29.38;;;2.60;99.90;;;;;;5053448;28;20036;-61
2023/01/20 04:39:46;;;;;;;55.45;29.90;;;2.80;99.90;;;;;;5060712;28;20033;-62
2023/01/20 04:42:11;;;;;;;56.90;29.95;;;2.80;99.90;;;;;;5060431;28;20075;-58
2023/01/20 04:44:37;;;;;;;58.35;30.73;;;2.70;99.90;;;;;;5066614;28;20558;-62
2023/01/20 04:47:02;;;;;;;57.92;29.65;;;2.90;99.90;;;;;;5054683;28;20039;-60
2023/01/20 04:49:28;;;;;;;58.53;29.42;;;3.00;99.90;;;;;;5064650;28;20035;-60
2023/01/20 04:51:53;;;;;;;52.55;28.15;;;2.70;99.90;;;;;;5058443;28;20554;-61
2023/01/20 04:54:19;;;;;;;50.72;26.45;;;2.70;99.90;;;;;;5065754;28;20063;-61
2023/01/20 04:56:47;;;;;;;56.78;26.58;;;2.60;99.90;;;;;;5064551;28;20032;-61
2023/01/20 04:59:13;;;;;;;53.47;28.35;;;2.70;99.90;;;;;;5065763;28;20032;-61
2023/01/20 05:01:38;;;;;;;49.60;27.08;;;2.80;99.90;;;;;;5063574;28;20051;-61
2023/01/20 05:04:04;;;;;;;52.53;27.63;;;2.80;99.90;;;;;;5055491;28;20121;-61
2023/01/20 05:06:29;;;;;;;58.78;27.63;;;2.80;99.90;;;;;;5066044;28;20029;-60
2023/01/20 05:08:55;;;;;;;56.63;27.10;;;2.70;99.90;;;;;;5061547;28;20485;-59
2023/01/20 05:11:21;;;;;;;55.95;26.90;;;2.80;99.90;;;;;;5065729;28;20051;-60
2023/01/20 05:13:46;;;;;;;52.13;27.50;;;2.80;99.90;;;;;;5064917;28;20032;-61
2023/01/20 05:16:12;;;;;;;56.33;29.55;;;2.80;99.90;;;;;;5065032;28;20028;-61
2023/01/20 05:18:37;;;;;;;55.30;28.55;;;2.80;99.90;;;;;;5054105;28;20102;-60
2023/01/20 05:21:04;;;;;;;54.20;29.45;;;2.60;99.90;;;;;;5064698;28;20040;-60
2023/01/20 05:23:29;;;;;;;55.63;29.35;;;2.70;99.90;;;;;;5065413;28;20047;-57
2023/01/20 05:25:55;;;;;;;56.22;29.60;;;2.80;99.90;;;;;;5065441;28;20127;-59
2023/01/20 05:28:21;;;;;;;56.72;27.23;;;2.70;99.90;;;;;;5059711;28;20515;-61
2023/01/20 05:30:47;;;;;;;49.63;26.83;;;2.40;99.90;;;;;;5054612;28;20047;-60
2023/01/20 05:33:13;;;;;;;53.75;28.08;;;2.40;99.90;;;;;;5053315;28;20029;-60
2023/01/20 05:35:38;;;;;;;55.45;28.33;;;2.60;99.90;;;;;;5064167;28;20106;-58
2023/01/20 05:38:04;;;;;;;56.53;28.98;;;2.70;99.90;;;;;;5064922;28;20033;-59
2023/01/20 05:40:29;;;;;;;56.53;27.45;;;2.80;99.90;;;;;;5058274;28;20041;-61
2023/01/20 05:43:02;;;;;;;54.15;28.33;;;2.70;99.90;;;;;;5063314;28;20036;-60
2023/01/20 05:45:28;;;;;;;56.73;29.07;;;2.70;99.90;;;;;;5066262;28;20037;-61
2023/01/20 05:47:58;;;;;;;51.10;26.00;;;2.70;99.90;;;;;;5064540;28;20500;-59
2023/01/20 05:50:27;;;;;;;50.17;26.33;;;2.60;99.90;;;;;;5069227;28;20543;-61
2023/01/20 05:52:53;;;;;;;48.15;26.83;;;2.70;99.90;;;;;;5063976;28;20048;-58
2023/01/20 05:55:19;;;;;;;47.10;25.73;;;2.90;99.90;;;;;;5062415;28;20036;-60
2023/01/20 05:57:45;;;;;;;48.60;26.45;;;2.60;99.90;;;;;;5058671;28;20036;-59
2023/01/20 06:00:12;;;;;;;48.45;25.42;;;2.70;99.90;;;;;;5068766;28;20051;-60
2023/01/20 06:02:38;;;;;;;53.10;27.90;;;2.80;99.90;;;;;;5060393;28;20431;-58
2023/01/20 06:05:05;;;;;;;54.90;28.58;;;2.80;99.90;;;;;;5067614;28;20021;-58
2023/01/20 06:07:30;;;;;;;55.40;29.10;;;2.80;99.90;;;;;;5049951;28;20043;-57
2023/01/20 06:09:56;;;;;;;53.20;29.23;;;2.70;99.90;;;;;;5057590;28;20044;-59
2023/01/20 06:12:23;;;;;;;58.22;30.23;;;2.90;99.90;;;;;;5067984;28;20466;-61
2023/01/20 06:14:49;;;;;;;49.30;27.40;;;2.90;99.90;;;;;;5062074;28;20203;-58
2023/01/20 06:17:15;;;;;;;51.92;28.27;;;2.60;99.90;;;;;;5063441;28;20029;-60
2023/01/20 06:19:41;;;;;;;52.88;27.98;;;2.40;99.90;;;;;;5063268;28;20124;-59
2023/01/20 06:22:11;;;;;;;47.08;26.45;;;2.40;99.90;;;;;;5068452;28;20107;-57
2023/01/20 06:24:36;;;;;;;42.38;24.23;;;2.40;99.90;;;;;;5065135;28;20041;-60
2023/01/20 06:27:02;;;;;;;43.40;24.85;;;2.40;99.90;;;;;;5067798;28;20448;-60
2023/01/20 06:29:29;;;;;;;43.10;23.58;;;2.50;99.90;;;;;;5072802;28;20376;-60
2023/01/20 06:31:54;;;;;;;42.88;23.25;;;2.60;99.90;;;;;;5071978;28;20040;-58
2023/01/20 06:34:20;;;;;;;40.28;22.85;;;2.60;99.90;;;;;;5064817;28;20048;-58
2023/01/20 06:36:45;;;;;;;40.97;22.95;;;2.50;99.90;;;;;;5057775;28;20041;-60
2023/01/20 06:39:11;;;;;;;43.38;23.58;;;2.30;99.90;;;;;;5060000;28;20033;-59
2023/01/20 06:41:36;;;;;;;40.80;23.70;;;2.30;99.90;;;;;;5068173;28;20059;-62
2023/01/20 06:44:02;;;;;;;44.35;22.50;;;2.40;99.90;;;;;;5058518;28;20037;-60
2023/01/20 06:46:27;;;;;;;43.20;22.27;;;2.20;99.90;;;;;;5062934;28;20051;-61
2023/01/20 06:48:59;;;;;;;40.65;22.70;;;2.20;99.90;;;;;;5057945;28;20429;-59
2023/01/20 06:51:25;;;;;;;37.05;21.10;;;2.20;99.90;;;;;;5065739;28;20029;-58
2023/01/20 06:53:50;;;;;;;42.70;21.83;;;2.10;99.90;;;;;;5062277;28;20523;-61
2023/01/20 06:56:16;;;;;;;39.50;22.27;;;2.10;99.90;;;;;;5068056;28;20029;-59
2023/01/20 06:58:42;;;;;;;40.95;22.15;;;2.40;99.90;;;;;;5067039;28;20032;-62
2023/01/20 07:01:11;;;;;;;44.42;24.90;;;2.30;99.90;;;;;;5066759;28;20399;-61
2023/01/20 07:03:36;;;;;;;44.97;23.95;;;2.40;99.90;;;;;;5066855;28;20143;-61
2023/01/20 07:06:14;;;;;;;44.17;24.60;;;2.40;99.90;;;;;;5054358;28;20135;-62
2023/01/20 07:08:42;;;;;;;47.15;24.75;;;2.20;99.90;;;;;;5059061;28;20041;-59
2023/01/20 07:11:08;;;;;;;44.45;25.02;;;2.00;99.90;;;;;;5060091;28;20433;-61
2023/01/20 07:13:33;;;;;;;46.60;25.85;;;1.90;99.90;;;;;;5067576;28;20048;-61
2023/01/20 07:15:59;;;;;;;46.85;25.23;;;1.90;99.90;;;;;;5065694;28;20075;-60
2023/01/20 07:18:24;;;;;;;49.65;27.38;;;2.10;99.90;;;;;;5066068;28;20075;-61
2023/01/20 07:20:54;;;;;;;45.17;24.92;;;2.30;99.90;;;;;;5068850;28;20036;-62
2023/01/20 07:23:21;;;;;;;47.88;26.05;;;2.30;99.90;;;;;;5065099;28;20036;-61
2023/01/20 07:25:46;;;;;;;44.83;24.77;;;2.60;99.90;;;;;;5060832;28;20045;-61
2023/01/20 07:28:12;;;;;;;44.75;24.08;;;2.40;99.90;;;;;;5061465;28;20403;-60
2023/01/20 07:30:38;;;;;;;44.88;24.55;;;2.50;99.90;;;;;;5065989;28;20036;-61
2023/01/20 07:33:06;;;;;;;44.20;23.63;;;2.50;99.90;;;;;;5060845;28;20162;-62
2023/01/20 07:35:32;;;;;;;42.95;24.45;;;2.60;99.90;;;;;;5068389;28;20052;-61
2023/01/20 07:37:57;;;;;;;43.13;23.83;;;2.30;99.90;;;;;;5065834;28;20029;-58
2023/01/20 07:40:23;;;;;;;42.92;23.20;;;2.30;99.90;;;;;;5064928;28;20599;-59
2023/01/20 07:42:48;;;;;;;42.47;23.50;;;2.20;99.90;;;;;;5062515;28;20058;-59
2023/01/20 07:45:14;;;;;;;43.53;22.52;;;2.00;99.90;;;;;;5055747;28;20428;-61
2023/01/20 07:47:40;;;;;;;41.65;23.25;;;2.10;99.90;;;;;;5065690;28;20046;-61
2023/01/20 07:50:06;;;;;;;42.05;22.95;;;2.20;99.90;;;;;;5055340;28;20401;-58
2023/01/20 07:52:32;;;;;;;43.03;23.10;;;2.30;99.90;;;;;;5054010;28;21138;-60
2023/01/20 07:54:57;;;;;;;42.70;22.55;;;2.30;99.90;;;;;;5064393;28;20040;-58
2023/01/20 07:57:23;;;;;;;39.35;22.33;;;2.00;99.90;;;;;;5057789;28;20035;-61
2023/01/20 07:59:48;;;;;;;40.13;22.48;;;2.10;99.90;;;;;;5066652;28;20039;-62
2023/01/20 08:02:14;;;;;;;39.75;20.73;;;2.30;99.90;;;;;;5057485;28;20411;-58
2023/01/20 08:04:39;;;;;;;46.30;22.35;;;2.10;99.90;;;;;;5061263;28;20520;-61
2023/01/20 08:07:05;;;;;;;38.00;20.48;;;2.10;99.90;;;;;;5065075;28;20678;-61
2023/01/20 08:09:30;;;;;;;41.63;21.52;;;2.20;99.90;;;;;;5057142;28;20036;-61
2023/01/20 08:11:56;;;;;;;40.03;21.05;;;2.00;99.90;;;;;;5062083;28;20159;-59
2023/01/20 08:14:22;;;;;;;38.70;21.83;;;2.00;99.90;;;;;;5057986;28;20392;-62
2023/01/20 08:16:47;;;;;;;38.53;21.83;;;2.00;99.90;;;;;;5061194;28;20483;-57
2023/01/20 08:19:13;;;;;;;38.22;22.15;;;2.00;99.90;;;;;;5065144;28;20040;-62
2023/01/20 08:21:38;;;;;;;41.28;21.50;;;1.90;99.90;;;;;;5066732;28;20037;-59
2023/01/20 08:24:05;;;;;;;42.55;22.58;;;2.00;99.90;;;;;;5066240;28;20036;-61
2023/01/20 08:26:31;;;;;;;45.95;23.00;;;2.00;99.90;;;;;;5069196;28;20147;-58
2023/01/20 08:29:06;;;;;;;43.83;22.45;;;2.20;99.90;;;;;;5063015;28;20032;-62
2023/01/20 08:31:32;;;;;;;42.42;22.45;;;2.30;99.90;;;;;;5055386;28;20039;-60
2023/01/20 08:33:58;;;;;;;42.70;24.15;;;2.40;99.90;;;;;;5062994;28;20123;-61
2023/01/20 08:36:28;;;;;;;45.65;24.08;;;2.10;99.90;;;;;;5054577;28;20045;-62
2023/01/20 08:38:56;;;;;;;43.03;24.35;;;2.40;99.90;;;;;;5064373;28;20032;-61
2023/01/20 08:41:25;;;;;;;42.95;24.98;;;2.40;99.90;;;;;;5065382;28;20550;-62
2023/01/20 08:43:51;;;;;;;41.35;21.73;;;2.50;99.90;;;;;;5061687;28;20058;-62
2023/01/20 08:46:18;;;;;;;38.53;22.58;;;2.50;99.90;;;;;;5063784;28;20495;-61
2023/01/20 08:48:44;;;;;;;43.25;23.63;;;2.50;99.90;;;;;;5061081;28;20028;-58
2023/01/20 08:51:22;;;;;;;39.92;22.58;;;2.30;99.90;;;;;;5060369;28;20309;-62
2023/01/20 08:53:49;;;;;;;39.00;20.65;;;2.30;99.90;;;;;;5064972;28;20063;-59
2023/01/20 08:56:15;;;;;;;38.80;20.92;;;2.30;99.90;;;;;;5063487;28;20029;-60
2023/01/20 08:58:41;;;;;;;38.88;21.77;;;2.10;99.90;;;;;;5061722;28;20040;-59
2023/01/20 09:01:12;;;;;;;40.78;21.60;;;2.20;99.90;;;;;;5064910;28;20036;-58
2023/01/20 09:03:38;;;;;;;38.42;20.95;;;2.30;99.90;;;;;;5063866;28;20036;-61
2023/01/20 09:06:05;;;;;;;36.60;20.30;;;2.20;99.90;;;;;;5063867;28;20388;-62
2023/01/20 09:08:31;;;;;;;42.47;21.77;;;2.10;99.90;;;;;;5062837;28;20068;-61
2023/01/20 09:11:12;;;;;;;40.70;20.25;;;2.20;99.90;;;;;;5062503;28;20464;-61
2023/01/20 09:13:38;;;;;;;35.67;21.98;;;2.20;99.90;;;;;;5059078;28;20032;-61
2023/01/20 09:16:04;;;;;;;40.17;21.50;;;2.40;99.90;;;;;;5059314;28;20052;-58
2023/01/20 09:18:31;;;;;;;39.42;21.90;;;2.40;99.90;;;;;;5057413;28;20086;-60
2023/01/20 09:20:58;;;;;;;40.13;23.23;;;2.30;99.90;;;;;;5064499;28;20040;-61
2023/01/20 09:23:24;;;;;;;39.53;22.40;;;2.40;99.90;;;;;;5062845;28;20041;-59
2023/01/20 09:25:50;;;;;;;44.47;22.98;;;2.60;99.90;;;;;;5063107;28;20051;-59
2023/01/20 09:28:15;;;;;;;39.55;23.25;;;2.70;99.90;;;;;;5059859;28;20032;-60
2023/01/20 09:30:42;;;;;;;38.67;22.50;;;2.80;99.90;;;;;;5057218;28;20052;-62
2023/01/20 09:33:09;;;;;;;42.75;21.75;;;2.90;99.90;;;;;;5056871;28;20384;-62
2023/01/20 09:35:35;;;;;;;38.00;21.98;;;3.00;99.90;;;;;;5057732;28;20129;-62
2023/01/20 09:44:09;;;;;;;41.78;22.02;;;3.00;99.90;;;;;;5061622;28;20124;-62
2023/01/20 09:47:19;;;;;;;40.70;21.40;;;2.80;99.90;;;;;;5052739;28;20123;-61
2023/01/20 09:53:14;;;;;;;37.42;21.65;;;2.80;99.90;;;;;;5055226;28;20040;-61
2023/01/20 09:55:55;;;;;;;38.47;22.15;;;2.90;99.90;;;;;;5052851;28;20605;-61
2023/01/20 09:58:58;;;;;;;33.42;20.65;;;3.10;99.90;;;;;;5054373;28;20056;-63
2023/01/20 10:01:30;;;;;;;39.30;21.33;;;3.30;99.90;;;;;;5052876;28;20041;-59
2023/01/20 10:04:19;;;;;;;36.10;20.40;;;3.30;99.90;;;;;;5054897;28;20272;-58
2023/01/20 10:06:53;;;;;;;32.72;20.10;;;3.30;99.90;;;;;;5051000;28;20079;-63
2023/01/20 10:09:23;;;;;;;33.08;20.48;;;3.30;99.90;;;;;;5057546;28;20044;-62
2023/01/20 10:11:52;;;;;;;31.92;19.48;;;3.20;99.90;;;;;;5056574;28;20072;-61
2023/01/20 10:14:34;;;;;;;30.58;18.88;;;3.10;99.90;;;;;;5059110;28;20036;-62
2023/01/20 10:17:14;;;;;;;29.77;19.77;;;2.90;99.90;;;;;;5057745;28;20056;-60
2023/01/20 10:20:02;;;;;;;28.60;19.10;;;3.00;99.90;;;;;;5051287;28;20527;-61
2023/01/20 10:23:01;;;;;;;29.92;18.25;;;3.00;99.90;;;;;;5051290;28;20037;-60
2023/01/20 10:25:38;;;;;;;31.85;17.83;;;3.20;99.90;;;;;;5056407;28;20408;-62
2023/01/20 10:28:13;;;;;;;30.40;18.83;;;3.10;99.90;;;;;;5051004;28;20059;-61
2023/01/20 10:30:39;;;;;;;33.35;19.85;;;3.20;99.90;;;;;;5058614;28;20066;-63
2023/01/20 10:33:11;;;;;;;30.70;18.48;;;3.10;99.90;;;;;;5060037;28;20056;-59
2023/01/20 10:35:41;;;;;;;31.48;17.13;;;3.00;99.90;;;;;;5061195;28;20040;-62
2023/01/20 10:38:18;;;;;;;28.20;16.77;;;2.80;99.90;;;;;;5058694;28;20041;-57
2023/01/20 10:41:19;;;;;;;32.20;19.08;;;2.90;99.90;;;;;;5065891;28;20044;-58
2023/01/20 10:43:45;;;;;;;31.25;17.80;;;3.20;99.90;;;;;;5050526;28;20098;-62
2023/01/20 10:46:36;;;;;;;31.55;17.63;;;3.10;99.90;;;;;;5064993;28;20031;-60
2023/01/20 10:49:25;;;;;;;27.13;16.95;;;3.00;99.90;;;;;;5061904;28;20025;-58
2023/01/20 10:52:12;;;;;;;31.42;17.20;;;3.00;99.90;;;;;;5064529;28;20035;-62
2023/01/20 10:55:17;;;;;;;28.08;17.05;;;2.90;99.90;;;;;;5064712;28;20116;-61
2023/01/20 10:57:46;;;;;;;29.20;16.67;;;3.20;99.90;;;;;;5050541;28;20040;-60
2023/01/20 11:00:27;;;;;;;26.77;15.68;;;3.30;99.90;;;;;;5063024;28;20082;-63
2023/01/20 11:02:57;;;;;;;26.83;15.80;;;3.10;99.90;;;;;;5055470;28;20037;-60
2023/01/20 11:05:35;;;;;;;25.60;15.30;;;3.20;99.90;;;;;;5064974;28;20097;-62
2023/01/20 11:08:06;;;;;;;28.67;16.40;;;3.10;99.90;;;;;;5061604;28;20037;-62
2023/01/20 11:10:32;;;;;;;23.85;16.15;;;3.20;99.90;;;;;;5062031;28;20032;-62
2023/01/20 11:13:00;;;;;;;22.85;14.75;;;3.20;99.90;;;;;;5063848;28;20047;-63
2023/01/20 11:15:43;;;;;;;26.73;14.73;;;3.10;99.90;;;;;;5067360;28;20392;-60
2023/01/20 11:18:18;;;;;;;;;;;3.10;99.90;;;;;;5063547;28;20127;-62
2023/01/20 11:20:48;;;;;;;21.48;13.98;;;2.90;99.90;;;;;;5065893;28;20003;-60
2023/01/20 11:23:37;;;;;;;24.25;13.60;;;2.90;99.90;;;;;;5072167;28;20044;-61
2023/01/20 11:26:08;;;;;;;21.92;14.20;;;3.00;99.90;;;;;;5067086;28;20036;-61
2023/01/20 11:28:53;;;;;;;27.00;16.42;;;3.00;99.90;;;;;;5064511;28;20060;-62
2023/01/20 11:31:21;;;;;;;23.90;14.27;;;3.20;99.90;;;;;;5063623;28;20498;-62
2023/01/20 11:34:02;;;;;;;27.80;15.02;;;3.20;99.90;;;;;;5062487;28;20033;-63
2023/01/20 11:36:28;;;;;;;23.77;14.25;;;3.30;99.90;;;;;;5059350;28;20489;-63
2023/01/20 11:38:55;;;;;;;27.55;13.90;;;3.40;99.90;;;;;;5052023;28;20036;-61
2023/01/20 11:41:26;;;;;;;20.85;13.55;;;3.50;99.90;;;;;;5061242;28;20623;-62
2023/01/20 11:43:55;;;;;;;23.90;14.57;;;3.30;99.90;;;;;;5055420;28;20029;-63
2023/01/20 11:46:26;;;;;;;24.08;14.23;;;3.30;99.90;;;;;;5055339;28;20032;-59
2023/01/20 11:49:11;;;;;;;18.27;11.70;;;3.40;99.90;;;;;;5060088;28;20038;-61
2023/01/20 11:51:44;;;;;;;22.08;12.68;;;3.20;99.90;;;;;;5064553;28;20500;-59
2023/01/20 11:54:15;;;;;;;22.95;13.95;;;3.20;99.90;;;;;;5060910;28;20040;-58
2023/01/20 11:56:43;;;;;;;23.65;13.27;;;3.30;99.90;;;;;;5050832;28;20477;-58
2023/01/20 11:59:27;;;;;;;22.65;13.20;;;3.40;99.90;;;;;;5056194;28;20543;-57
2023/01/20 12:02:03;;;;;;;20.58;11.85;;;3.40;99.90;;;;;;5061168;28;20060;-63
2023/01/20 12:04:55;;;;;;;18.33;11.75;;;3.30;99.90;;;;;;5055410;28;20115;-62
2023/01/20 12:07:29;;;;;;;21.05;12.55;;;3.20;99.90;;;;;;5052255;28;20064;-61
2023/01/20 12:10:10;;;;;;;19.80;12.32;;;3.20;99.90;;;;;;5055053;28;20037;-63
2023/01/20 12:12:41;;;;;;;19.35;11.68;;;3.20;99.90;;;;;;5059736;28;20060;-60
2023/01/20 12:15:27;;;;;;;20.02;12.65;;;3.40;99.90;;;;;;5064176;28;21588;-63
2023/01/20 12:18:19;;;;;;;19.77;10.68;;;3.60;99.90;;;;;;5053740;28;20681;-61
2023/01/20 12:21:19;;;;;;;20.25;12.10;;;3.40;99.90;;;;;;5060147;28;20065;-62
2023/01/20 12:24:17;;;;;;;19.42;11.48;;;3.20;99.90;;;;;;5052422;28;20064;-60
2023/01/20 12:26:43;;;;;;;18.83;11.65;;;2.90;99.90;;;;;;5047136;28;20094;-61
2023/01/20 12:29:27;;;;;;;19.73;11.85;;;2.80;99.90;;;;;;5055522;28;20454;-55
2023/01/20 12:31:53;;;;;;;22.85;12.15;;;3.00;99.90;;;;;;5062823;28;20289;-62
2023/01/20 12:34:29;;;;;;;21.13;12.65;;;3.10;99.90;;;;;;5064060;28;20115;-62
2023/01/20 12:37:07;;;;;;;20.40;11.75;;;3.30;99.90;;;;;;5065264;28;20032;-58
2023/01/20 12:39:56;;;;;;;18.77;11.75;;;3.20;99.90;;;;;;5061336;28;20455;-60
2023/01/20 12:42:36;;;;;;;19.50;11.73;;;3.30;99.90;;;;;;5060132;28;20048;-59
2023/01/20 12:45:13;;;;;;;22.80;12.77;;;3.60;99.90;;;;;;5053055;28;20053;-58
2023/01/20 12:48:19;;;;;;;21.67;12.55;;;3.70;99.90;;;;;;5057284;28;20112;-63
2023/01/20 12:51:04;;;;;;;21.25;13.18;;;3.70;99.90;;;;;;5058322;28;20032;-59
2023/01/20 12:54:04;;;;;;;20.80;12.85;;;3.90;99.90;;;;;;5058199;28;20029;-62
2023/01/20 12:57:16;;;;;;;21.80;13.93;;;3.90;99.90;;;;;;5060690;28;20044;-61
2023/01/20 13:00:00;;;;;;;24.00;13.55;;;3.80;99.90;;;;;;5062415;28;20078;-60
2023/01/20 13:03:14;;;;;;;21.17;13.80;;;3.60;99.90;;;;;;5063971;28;20044;-60
2023/01/20 13:05:56;;;;;;;22.50;13.63;;;3.60;99.90;;;;;;5018971;28;20065;-62
2023/01/20 13:08:35;;;;;;;20.38;13.00;;;3.70;99.90;;;;;;5053482;28;20183;-62